createdAt,value
2022-09-30T00:02:18.319Z,81.75
2022-09-30T00:07:21.239Z,81.89
2022-09-30T00:12:23.853Z,81.57
2022-09-30T00:17:28.281Z,81.73
2022-09-30T00:22:30.904Z,81.75
2022-09-30T00:27:33.483Z,82.09
2022-09-30T00:32:37.603Z,82.14
2022-09-30T00:37:40.485Z,81.95
2022-09-30T00:42:43.171Z,82.39
2022-09-30T00:47:54.509Z,82.19
2022-09-30T00:53:01.682Z,82.27
2022-09-30T00:58:05.595Z,82.32
2022-09-30T01:03:09.583Z,82.28
2022-09-30T01:08:12.565Z,82.41
2022-09-30T01:13:17.860Z,82.31
2022-09-30T01:18:28.516Z,82.32
2022-09-30T01:23:54.942Z,82.43
2022-09-30T01:29:11.075Z,82.11
2022-09-30T01:34:19.484Z,82.48
2022-09-30T01:39:34.132Z,82.48
2022-09-30T01:44:39.548Z,81.96
2022-09-30T01:49:46.831Z,82.06
2022-09-30T01:54:53.105Z,82.64
2022-09-30T01:59:58.557Z,82.01
2022-09-30T02:05:04.722Z,82.01
2022-09-30T02:10:11.303Z,82.14
2022-09-30T02:15:16.575Z,82.17
2022-09-30T02:20:23.437Z,82.12
2022-09-30T02:25:29.143Z,82.23
2022-09-30T02:30:32.922Z,82.64
2022-09-30T02:35:38.531Z,82.45
2022-09-30T02:40:45.079Z,82.52
2022-09-30T02:45:52.053Z,82.20
2022-09-30T02:51:01.364Z,82.48
2022-09-30T02:56:10.417Z,82.54
2022-09-30T03:01:14.523Z,82.26
2022-09-30T03:06:19.345Z,82.40
2022-09-30T03:11:24.408Z,82.34
2022-09-30T03:16:37.351Z,82.38
2022-09-30T03:21:52.813Z,82.52
2022-09-30T03:27:01.579Z,82.10
2022-09-30T03:32:11.950Z,82.52
2022-09-30T03:37:20.962Z,82.46
2022-09-30T03:42:27.071Z,82.68
2022-09-30T03:47:32.833Z,82.39
2022-09-30T03:52:37.358Z,82.60
2022-09-30T03:57:39.995Z,82.31
2022-09-30T04:02:43.000Z,82.39
2022-09-30T04:07:47.250Z,82.91
2022-09-30T04:12:49.839Z,82.72
2022-09-30T04:17:52.433Z,82.57
2022-09-30T04:22:58.128Z,83.00
2022-09-30T04:28:00.730Z,82.65
2022-09-30T04:33:03.472Z,82.94
2022-09-30T04:38:07.674Z,82.99
2022-09-30T04:43:10.284Z,82.70
2022-09-30T04:48:12.954Z,83.03
2022-09-30T04:53:17.489Z,83.28
2022-09-30T04:58:20.058Z,83.15
2022-09-30T05:03:22.816Z,82.83
2022-09-30T05:08:26.844Z,83.06
2022-09-30T05:13:32.531Z,83.62
2022-09-30T05:18:37.081Z,83.67
2022-09-30T05:23:41.152Z,83.58
2022-09-30T05:28:43.891Z,83.47
2022-09-30T05:33:46.855Z,83.28
2022-09-30T05:38:53.272Z,83.60
2022-09-30T05:43:55.914Z,83.57
2022-09-30T05:48:58.577Z,83.29
2022-09-30T05:54:02.629Z,83.49
2022-09-30T05:59:05.541Z,83.42
2022-09-30T06:04:08.238Z,83.32
2022-09-30T06:09:12.251Z,83.11
2022-09-30T06:14:16.894Z,82.91
2022-09-30T06:19:19.613Z,82.68
2022-09-30T06:24:23.632Z,82.94
2022-09-30T06:29:26.348Z,82.72
2022-09-30T06:34:29.190Z,82.50
2022-09-30T06:39:33.164Z,82.31
2022-09-30T06:44:46.016Z,82.26
2022-09-30T06:49:53.225Z,82.15
2022-09-30T06:54:57.500Z,81.87
2022-09-30T07:00:00.068Z,82.10
2022-09-30T07:05:04.156Z,82.03
2022-09-30T07:10:09.154Z,82.08
2022-09-30T07:15:13.820Z,81.68
2022-09-30T07:20:16.676Z,81.69
2022-09-30T07:25:20.579Z,81.95
2022-09-30T07:30:27.282Z,81.79
2022-09-30T07:35:30.243Z,82.10
2022-09-30T07:40:34.192Z,81.73
2022-09-30T07:45:37.692Z,81.99
2022-09-30T07:50:45.327Z,81.99
2022-09-30T07:55:49.391Z,81.81
2022-09-30T08:00:52.236Z,81.15
2022-09-30T08:05:54.966Z,80.98
2022-09-30T08:11:01.205Z,80.26
2022-09-30T08:16:03.902Z,80.42
2022-09-30T08:21:07.667Z,80.35
2022-09-30T08:26:13.163Z,80.09
2022-09-30T08:31:17.208Z,79.92
2022-09-30T08:36:21.798Z,79.44
2022-09-30T08:41:53.885Z,79.31
2022-09-30T08:47:00.949Z,78.89
2022-09-30T08:52:05.414Z,79.30
2022-09-30T08:57:12.275Z,79.61
2022-09-30T09:02:19.739Z,79.79
2022-09-30T09:07:31.908Z,79.62
2022-09-30T09:12:42.639Z,79.42
2022-09-30T09:18:22.009Z,79.49
2022-09-30T09:23:22.189Z,79.36
2022-09-30T09:28:33.774Z,79.15
2022-09-30T09:33:37.264Z,78.96
2022-09-30T09:38:55.084Z,78.51
2022-09-30T09:44:03.575Z,78.16
2022-09-30T09:49:28.652Z,77.71
2022-09-30T09:54:33.092Z,77.15
2022-09-30T09:59:37.618Z,76.81
2022-09-30T10:04:50.944Z,76.52
2022-09-30T10:10:07.745Z,76.29
2022-09-30T10:15:21.784Z,75.67
2022-09-30T10:20:29.125Z,75.31
2022-09-30T10:25:32.069Z,74.65
2022-09-30T10:30:43.925Z,73.98
2022-09-30T10:36:16.129Z,73.79
2022-09-30T10:41:23.928Z,72.99
2022-09-30T10:46:30.621Z,72.88
2022-09-30T10:51:36.299Z,72.20
2022-09-30T10:56:45.028Z,71.99
2022-09-30T11:01:53.884Z,70.94
2022-09-30T11:07:06.112Z,69.71
2022-09-30T11:12:14.063Z,67.99
2022-09-30T11:17:28.706Z,57.61
2022-09-30T11:22:37.322Z,50.26
2022-09-30T11:27:49.339Z,54.13
2022-09-30T11:33:08.470Z,49.82
2022-09-30T11:38:21.250Z,44.38
2022-09-30T11:43:31.166Z,42.79
2022-09-30T11:48:46.356Z,42.67
2022-09-30T11:53:57.430Z,43.06
2022-09-30T11:59:02.131Z,51.80
2022-09-30T12:04:08.882Z,55.31
2022-09-30T12:09:16.924Z,44.74
2022-09-30T12:14:24.641Z,37.70
2022-09-30T12:19:32.312Z,39.96
2022-09-30T12:24:37.357Z,41.18
2022-09-30T12:30:00.890Z,42.98
2022-09-30T12:35:19.682Z,49.74
2022-09-30T12:40:33.609Z,54.59
2022-09-30T12:46:02.748Z,54.98
2022-09-30T12:51:08.059Z,50.28
2022-09-30T12:56:13.453Z,50.18
2022-09-30T13:01:18.401Z,53.02
2022-09-30T13:06:23.215Z,56.57
2022-09-30T13:11:42.048Z,54.15
2022-09-30T13:17:19.429Z,51.36
2022-09-30T13:22:56.979Z,50.99
2022-09-30T13:28:32.041Z,51.30
2022-09-30T13:33:44.373Z,52.18
2022-09-30T13:39:07.750Z,51.62
2022-09-30T13:44:16.257Z,51.46
2022-09-30T13:49:22.717Z,51.98
2022-09-30T13:54:31.757Z,52.31
2022-09-30T13:59:44.015Z,52.35
2022-09-30T14:05:00.831Z,51.45
2022-09-30T14:10:16.473Z,53.54
2022-09-30T14:15:47.230Z,55.00
2022-09-30T14:21:01.886Z,55.59
2022-09-30T14:26:16.071Z,54.99
2022-09-30T14:31:20.273Z,54.47
2022-09-30T14:36:23.592Z,54.69
2022-09-30T14:41:28.189Z,55.87
2022-09-30T14:46:34.249Z,56.26
2022-09-30T14:51:43.507Z,56.33
2022-09-30T14:56:48.451Z,54.58
2022-09-30T15:01:55.327Z,51.99
2022-09-30T15:07:00.293Z,47.49
2022-09-30T15:12:11.057Z,42.67
2022-09-30T15:17:19.265Z,38.58
2022-09-30T15:22:22.380Z,35.97
2022-09-30T15:27:29.868Z,41.87
2022-09-30T15:32:33.889Z,44.31
2022-09-30T15:37:36.626Z,47.38
2022-09-30T15:42:42.407Z,47.69
2022-09-30T15:47:56.478Z,48.49
2022-09-30T15:53:04.919Z,52.16
2022-09-30T15:58:33.533Z,54.20
2022-09-30T16:03:36.438Z,55.13
2022-09-30T16:08:43.952Z,55.35
2022-09-30T16:13:48.199Z,55.72
2022-09-30T16:18:52.486Z,56.63
2022-09-30T16:23:55.393Z,57.20
2022-09-30T16:29:05.864Z,58.24
2022-09-30T16:34:13.764Z,59.07
2022-09-30T16:39:17.324Z,59.69
2022-09-30T16:44:23.076Z,60.40
2022-09-30T16:49:25.947Z,61.17
2022-09-30T16:54:28.640Z,62.05
2022-09-30T16:59:33.212Z,62.60
2022-09-30T17:04:38.601Z,63.17
2022-09-30T17:09:43.109Z,63.67
2022-09-30T17:14:47.378Z,63.98
2022-09-30T17:19:50.031Z,64.66
2022-09-30T17:24:52.628Z,64.94
2022-09-30T17:29:56.682Z,65.26
2022-09-30T17:34:59.316Z,65.42
2022-09-30T17:40:22.503Z,65.85
2022-09-30T17:45:28.048Z,66.18
2022-09-30T17:50:30.772Z,66.42
2022-09-30T17:55:34.620Z,66.51
2022-09-30T18:00:38.637Z,66.73
2022-09-30T18:05:41.226Z,67.27
2022-09-30T18:10:43.842Z,67.60
2022-09-30T18:15:48.031Z,68.02
2022-09-30T18:20:51.937Z,68.27
2022-09-30T18:25:54.948Z,68.54
2022-09-30T18:31:05.778Z,68.91
2022-09-30T18:36:08.404Z,69.08
2022-09-30T18:41:11.322Z,69.38
2022-09-30T18:46:15.443Z,69.57
2022-09-30T18:51:18.573Z,69.54
2022-09-30T18:56:22.477Z,69.52
2022-09-30T19:01:27.259Z,69.66
2022-09-30T19:06:30.022Z,69.78
2022-09-30T19:11:33.537Z,70.14
2022-09-30T19:16:39.093Z,70.20
2022-09-30T19:21:42.045Z,70.29
2022-09-30T19:26:47.897Z,70.51
2022-09-30T19:31:51.949Z,70.56
2022-09-30T19:36:57.867Z,70.71
2022-09-30T19:42:04.047Z,70.91
2022-09-30T19:47:08.254Z,71.11
2022-09-30T19:52:20.140Z,71.22
2022-09-30T19:57:24.650Z,71.41
2022-09-30T20:02:28.670Z,71.53
2022-09-30T20:07:31.383Z,71.57
2022-09-30T20:12:34.099Z,71.94
2022-09-30T20:17:38.032Z,72.13
2022-09-30T20:22:40.782Z,72.16
2022-09-30T20:27:49.843Z,72.27
2022-09-30T20:32:56.018Z,72.49
2022-09-30T20:37:58.626Z,72.46
2022-09-30T20:43:04.065Z,72.68
2022-09-30T20:48:08.554Z,72.72
2022-09-30T20:53:13.633Z,72.86
2022-09-30T20:58:16.263Z,72.79
2022-09-30T21:03:20.230Z,72.67
2022-09-30T21:08:23.046Z,72.62
2022-09-30T21:13:25.654Z,72.66
2022-09-30T21:18:29.681Z,72.80
2022-09-30T21:23:33.706Z,72.58
2022-09-30T21:28:37.003Z,72.74
2022-09-30T21:33:42.311Z,72.83
2022-09-30T21:38:44.921Z,73.00
2022-09-30T21:43:48.232Z,72.57
2022-09-30T21:48:53.600Z,72.85
2022-09-30T21:53:56.162Z,72.81
2022-09-30T21:58:58.867Z,72.69
2022-09-30T22:04:03.360Z,72.71
2022-09-30T22:09:05.966Z,72.82
2022-09-30T22:14:08.608Z,72.83
2022-09-30T22:19:13.534Z,72.79
2022-09-30T22:24:16.109Z,72.83
2022-09-30T22:29:18.713Z,72.84
2022-09-30T22:34:40.127Z,72.92
2022-09-30T22:39:42.759Z,73.14
2022-09-30T22:44:46.213Z,73.06
2022-09-30T22:49:50.182Z,73.14
2022-09-30T22:54:53.792Z,72.99
2022-09-30T22:59:58.916Z,73.02
2022-09-30T23:05:02.899Z,73.07
2022-09-30T23:10:06.588Z,72.99
2022-09-30T23:15:09.826Z,73.32
2022-09-30T23:20:13.800Z,73.25
2022-09-30T23:25:16.676Z,73.24
2022-09-30T23:30:19.294Z,73.13
2022-09-30T23:35:23.250Z,73.36
2022-09-30T23:40:25.878Z,73.29
2022-09-30T23:45:28.563Z,73.47
2022-09-30T23:50:33.337Z,73.57
2022-09-30T23:55:35.966Z,73.70
